createdAt,value
2018-07-03T00:00:52.808Z,59.46
2018-07-03T00:03:21.744Z,59.54
2018-07-03T00:05:50.268Z,59.08
2018-07-03T00:08:19.311Z,59.97
2018-07-03T00:10:47.935Z,60.21
2018-07-03T00:13:16.489Z,60.22
2018-07-03T00:15:45.030Z,60.86
2018-07-03T00:18:13.550Z,61.50
2018-07-03T00:20:42.058Z,61.11
2018-07-03T00:23:10.754Z,60.98
2018-07-03T00:25:39.272Z,60.74
2018-07-03T00:28:07.860Z,61.40
2018-07-03T00:30:36.631Z,62.36
2018-07-03T00:33:05.127Z,61.97
2018-07-03T00:35:33.639Z,62.56
2018-07-03T00:38:02.114Z,63.02
2018-07-03T00:40:30.925Z,63.11
2018-07-03T00:42:59.422Z,62.87
2018-07-03T00:45:28.030Z,63.09
2018-07-03T00:47:56.629Z,63.56
2018-07-03T00:50:25.122Z,63.60
2018-07-03T00:52:53.877Z,62.99
2018-07-03T00:55:22.404Z,63.04
2018-07-03T00:57:50.874Z,64.03
2018-07-03T01:00:31.428Z,63.87
2018-07-03T01:03:00.570Z,64.66
2018-07-03T01:05:29.331Z,64.47
2018-07-03T01:07:58.404Z,64.17
2018-07-03T01:10:27.781Z,64.48
2018-07-03T01:12:56.778Z,64.33
2018-07-03T01:15:26.299Z,64.73
2018-07-03T01:17:54.894Z,66.08
2018-07-03T01:20:23.427Z,65.95
2018-07-03T01:22:52.243Z,67.33
2018-07-03T01:25:20.812Z,67.30
2018-07-03T01:27:49.328Z,67.04
2018-07-03T01:30:18.569Z,68.02
2018-07-03T01:32:47.260Z,68.26
2018-07-03T01:35:16.091Z,68.06
2018-07-03T01:37:46.448Z,67.86
2018-07-03T01:40:15.026Z,68.35
2018-07-03T01:42:43.454Z,68.16
2018-07-03T01:45:12.280Z,67.99
2018-07-03T01:47:40.840Z,67.47
2018-07-03T01:50:09.412Z,66.46
2018-07-03T01:52:37.923Z,67.95
2018-07-03T01:55:07.017Z,68.46
2018-07-03T01:57:36.107Z,67.76
2018-07-03T02:00:05.470Z,68.07
2018-07-03T02:02:34.055Z,68.06
2018-07-03T02:05:02.593Z,68.80
2018-07-03T02:07:31.175Z,68.75
2018-07-03T02:09:59.886Z,69.32
2018-07-03T02:12:28.544Z,69.51
2018-07-03T02:14:57.059Z,69.27
2018-07-03T02:17:25.568Z,68.98
2018-07-03T02:19:54.153Z,69.19
2018-07-03T02:22:22.663Z,69.06
2018-07-03T02:24:51.251Z,68.66
2018-07-03T02:27:19.949Z,68.40
2018-07-03T02:29:48.467Z,68.81
2018-07-03T02:32:17.024Z,68.74
2018-07-03T02:34:45.550Z,70.09
2018-07-03T02:37:14.176Z,69.62
2018-07-03T02:39:42.899Z,70.27
2018-07-03T02:42:11.343Z,70.36
2018-07-03T02:44:39.935Z,70.84
2018-07-03T02:47:08.422Z,70.96
2018-07-03T02:49:36.909Z,70.67
2018-07-03T02:52:05.485Z,71.58
2018-07-03T02:54:33.997Z,71.46
2018-07-03T02:57:02.929Z,71.56
2018-07-03T02:59:31.387Z,71.68
2018-07-03T03:01:59.950Z,72.06
2018-07-03T03:04:28.659Z,73.09
2018-07-03T03:06:57.187Z,73.29
2018-07-03T03:09:25.747Z,73.55
2018-07-03T03:11:54.476Z,73.30
2018-07-03T03:14:23.062Z,73.40
2018-07-03T03:16:52.057Z,73.55
2018-07-03T03:19:20.569Z,73.59
2018-07-03T03:21:49.227Z,73.89
2018-07-03T03:24:17.809Z,73.84
2018-07-03T03:26:46.569Z,73.66
2018-07-03T03:29:15.082Z,72.90
2018-07-03T03:31:43.665Z,73.04
2018-07-03T03:34:12.397Z,73.10
2018-07-03T03:36:40.906Z,73.76
2018-07-03T03:39:09.720Z,73.56
2018-07-03T03:41:38.287Z,73.51
2018-07-03T03:44:06.799Z,73.84
2018-07-03T03:46:35.681Z,74.28
2018-07-03T03:49:04.425Z,73.43
2018-07-03T03:51:32.936Z,73.50
2018-07-03T03:54:01.531Z,74.39
2018-07-03T03:56:30.029Z,73.80
2018-07-03T03:58:58.553Z,73.66
2018-07-03T04:01:27.271Z,74.54
2018-07-03T04:03:55.799Z,74.49
2018-07-03T04:06:24.738Z,74.54
2018-07-03T04:08:53.342Z,74.20
2018-07-03T04:11:21.895Z,73.56
2018-07-03T04:13:50.396Z,74.80
2018-07-03T04:16:18.925Z,75.35
2018-07-03T04:18:47.617Z,75.14
2018-07-03T04:21:46.719Z,74.91
2018-07-03T04:24:15.221Z,74.43
2018-07-03T04:26:43.788Z,75.12
2018-07-03T04:29:12.238Z,75.01
2018-07-03T04:31:40.896Z,75.33
2018-07-03T04:34:09.433Z,74.68
2018-07-03T04:36:37.979Z,74.30
2018-07-03T04:39:08.952Z,73.25
2018-07-03T04:41:38.452Z,73.12
2018-07-03T04:44:07.913Z,72.74
2018-07-03T04:46:36.497Z,72.40
2018-07-03T04:49:05.177Z,72.85
2018-07-03T04:51:33.800Z,73.60
2018-07-03T04:54:02.860Z,71.83
2018-07-03T04:56:31.756Z,72.05
2018-07-03T04:59:00.624Z,73.17
2018-07-03T05:01:29.342Z,72.74
2018-07-03T05:03:58.180Z,72.50
2018-07-03T05:06:26.821Z,71.55
2018-07-03T05:08:55.355Z,67.72
2018-07-03T05:11:23.980Z,66.20
2018-07-03T05:13:52.704Z,65.16
2018-07-03T05:16:21.311Z,66.44
2018-07-03T05:18:50.011Z,66.16
2018-07-03T05:21:18.839Z,66.23
2018-07-03T05:23:47.480Z,66.66
2018-07-03T05:26:16.131Z,66.76
2018-07-03T05:28:44.712Z,67.16
2018-07-03T05:31:13.211Z,68.07
2018-07-03T05:33:41.978Z,68.38
2018-07-03T05:36:10.533Z,68.35
2018-07-03T05:38:39.036Z,67.54
2018-07-03T05:41:07.594Z,66.38
2018-07-03T05:43:36.148Z,61.60
2018-07-03T05:46:04.986Z,56.98
2018-07-03T05:48:33.769Z,54.81
2018-07-03T05:51:02.452Z,52.90
2018-07-03T05:53:31.086Z,52.52
2018-07-03T05:55:59.588Z,50.80
2018-07-03T05:58:28.131Z,51.61
2018-07-03T06:00:56.598Z,50.58
2018-07-03T06:03:25.099Z,48.69
2018-07-03T06:05:53.696Z,46.91
2018-07-03T06:08:22.228Z,43.53
2018-07-03T06:10:50.975Z,44.16
2018-07-03T06:13:19.906Z,41.32
2018-07-03T06:15:48.487Z,40.79
2018-07-03T06:18:17.033Z,40.05
2018-07-03T06:20:45.601Z,39.77
2018-07-03T06:23:14.194Z,39.68
2018-07-03T06:25:43.059Z,39.15
2018-07-03T06:28:11.626Z,38.86
2018-07-03T06:30:41.795Z,38.89
2018-07-03T06:33:10.931Z,38.90
2018-07-03T06:35:39.464Z,41.32
2018-07-03T06:38:07.955Z,41.65
2018-07-03T06:40:36.433Z,43.10
2018-07-03T06:43:05.047Z,43.80
2018-07-03T06:45:33.912Z,44.23
2018-07-03T06:48:02.501Z,44.28
2018-07-03T06:50:31.046Z,43.41
2018-07-03T06:52:59.967Z,44.22
2018-07-03T06:55:28.688Z,43.88
2018-07-03T06:57:57.275Z,43.12
2018-07-03T07:00:25.793Z,42.00
2018-07-03T07:02:54.275Z,41.18
2018-07-03T07:05:22.808Z,40.96
2018-07-03T07:07:51.634Z,40.60
2018-07-03T07:10:20.293Z,40.00
2018-07-03T07:12:48.814Z,40.00
2018-07-03T07:15:17.387Z,38.37
2018-07-03T07:17:45.995Z,39.23
2018-07-03T07:20:14.462Z,38.65
2018-07-03T07:22:42.932Z,37.91
2018-07-03T07:25:11.469Z,36.71
2018-07-03T07:27:40.008Z,36.81
2018-07-03T07:30:08.635Z,34.61
2018-07-03T07:32:37.213Z,33.57
2018-07-03T07:35:06.004Z,32.55
2018-07-03T07:37:34.722Z,34.12
2018-07-03T07:40:03.331Z,32.23
2018-07-03T07:42:32.096Z,31.57
2018-07-03T07:45:00.690Z,32.40
2018-07-03T07:47:29.228Z,30.95
2018-07-03T07:49:57.954Z,30.27
2018-07-03T07:52:26.558Z,31.58
2018-07-03T07:54:55.096Z,32.60
2018-07-03T07:57:23.666Z,32.93
2018-07-03T07:59:52.251Z,32.74
2018-07-03T08:02:20.757Z,32.44
2018-07-03T08:04:49.305Z,31.53
2018-07-03T08:07:18.078Z,31.55
2018-07-03T08:09:46.621Z,29.89
2018-07-03T08:12:15.086Z,31.53
2018-07-03T08:14:43.637Z,32.29
2018-07-03T08:17:12.264Z,33.20
2018-07-03T08:19:40.954Z,33.24
2018-07-03T08:22:09.534Z,32.66
2018-07-03T08:24:38.064Z,32.78
2018-07-03T08:27:06.856Z,31.70
2018-07-03T08:29:35.392Z,33.10
2018-07-03T08:32:03.942Z,33.95
2018-07-03T08:34:32.474Z,31.50
2018-07-03T08:37:01.146Z,32.29
2018-07-03T08:39:29.709Z,33.00
2018-07-03T08:41:58.333Z,32.95
2018-07-03T08:44:26.834Z,32.80
2018-07-03T08:46:55.438Z,32.11
2018-07-03T08:49:23.994Z,32.32
2018-07-03T08:51:52.778Z,33.04
2018-07-03T08:54:21.283Z,33.42
2018-07-03T08:56:49.820Z,32.22
2018-07-03T08:59:18.493Z,33.10
2018-07-03T09:01:47.118Z,32.48
2018-07-03T09:04:15.814Z,32.13
2018-07-03T09:06:44.398Z,30.49
2018-07-03T09:09:13.142Z,30.99
2018-07-03T09:11:41.712Z,31.82
2018-07-03T09:14:10.531Z,31.23
2018-07-03T09:16:39.437Z,29.94
2018-07-03T09:19:08.307Z,29.13
2018-07-03T09:21:36.749Z,29.54
2018-07-03T09:24:05.271Z,30.38
2018-07-03T09:26:33.846Z,31.30
2018-07-03T09:29:02.355Z,29.74
2018-07-03T09:31:30.966Z,30.98
2018-07-03T09:33:59.872Z,30.29
2018-07-03T09:36:28.429Z,30.58
2018-07-03T09:38:57.072Z,30.55
2018-07-03T09:41:25.677Z,31.21
2018-07-03T09:43:54.181Z,31.82
2018-07-03T09:46:22.907Z,30.73
2018-07-03T09:48:51.498Z,31.11
2018-07-03T09:51:20.039Z,30.90
2018-07-03T09:53:48.907Z,30.86
2018-07-03T09:56:17.483Z,30.50
2018-07-03T09:58:46.077Z,31.20
2018-07-03T10:01:20.080Z,30.27
2018-07-03T10:03:48.904Z,30.28
2018-07-03T10:06:17.889Z,31.15
2018-07-03T10:08:46.486Z,30.55
2018-07-03T10:11:15.361Z,30.39
2018-07-03T10:13:43.914Z,31.37
2018-07-03T10:16:12.590Z,31.08
2018-07-03T10:18:41.233Z,31.01
2018-07-03T10:21:10.015Z,30.08
2018-07-03T10:23:38.522Z,30.95
2018-07-03T10:26:07.103Z,30.81
2018-07-03T10:28:36.142Z,31.14
2018-07-03T10:31:04.764Z,30.54
2018-07-03T10:33:33.570Z,29.46
2018-07-03T10:36:02.325Z,30.15
2018-07-03T10:38:30.911Z,30.11
2018-07-03T10:40:59.580Z,30.15
2018-07-03T10:43:28.161Z,30.41
2018-07-03T10:45:56.717Z,30.01
2018-07-03T10:48:25.631Z,29.35
2018-07-03T10:50:54.206Z,30.91
2018-07-03T10:53:23.020Z,31.20
2018-07-03T10:55:51.643Z,31.21
2018-07-03T10:58:20.290Z,30.77
2018-07-03T11:00:48.881Z,30.57
2018-07-03T11:03:17.497Z,30.32
2018-07-03T11:05:46.073Z,31.23
2018-07-03T11:08:14.723Z,31.29
2018-07-03T11:10:43.654Z,32.42
2018-07-03T11:13:12.258Z,31.12
2018-07-03T11:15:41.110Z,31.39
2018-07-03T11:18:09.867Z,31.54
2018-07-03T11:20:38.476Z,31.45
2018-07-03T11:23:07.088Z,30.84
2018-07-03T11:25:36.309Z,30.29
2018-07-03T11:28:05.129Z,31.24
2018-07-03T11:30:33.792Z,30.32
2018-07-03T11:33:02.574Z,31.57
2018-07-03T11:35:31.427Z,31.74
2018-07-03T11:37:59.851Z,32.12
2018-07-03T11:40:36.043Z,32.17
2018-07-03T11:43:08.829Z,31.17
2018-07-03T11:45:37.391Z,30.93
2018-07-03T11:48:06.310Z,30.37
2018-07-03T11:50:34.937Z,30.43
2018-07-03T11:53:03.635Z,30.50
2018-07-03T11:55:32.128Z,30.50
2018-07-03T11:58:01.060Z,31.40
2018-07-03T12:00:29.576Z,30.35
2018-07-03T12:02:58.190Z,31.19
2018-07-03T12:05:26.662Z,31.50
2018-07-03T12:07:55.590Z,31.44
2018-07-03T12:10:24.266Z,31.03
2018-07-03T12:12:52.823Z,30.52
2018-07-03T12:15:21.351Z,30.39
2018-07-03T12:17:50.071Z,30.95
2018-07-03T12:20:18.713Z,31.07
2018-07-03T12:22:47.247Z,31.28
2018-07-03T12:25:16.040Z,31.13
2018-07-03T12:27:44.634Z,31.03
2018-07-03T12:30:13.684Z,31.39
2018-07-03T12:32:42.225Z,32.07
2018-07-03T12:35:11.483Z,31.75
2018-07-03T12:37:40.086Z,30.73
2018-07-03T12:40:08.657Z,30.80
2018-07-03T12:42:37.273Z,30.41
2018-07-03T12:45:06.229Z,30.56
2018-07-03T12:47:34.816Z,31.12
2018-07-03T12:50:03.577Z,31.16
2018-07-03T12:52:32.102Z,31.17
2018-07-03T12:55:00.643Z,31.38
2018-07-03T12:57:29.219Z,31.22
2018-07-03T12:59:57.829Z,32.17
2018-07-03T13:02:26.382Z,31.07
2018-07-03T13:04:54.929Z,32.06
2018-07-03T13:07:23.533Z,31.69
2018-07-03T13:09:52.098Z,32.25
2018-07-03T13:12:20.773Z,32.06
2018-07-03T13:14:49.356Z,31.67
2018-07-03T13:17:17.969Z,32.16
2018-07-03T13:19:46.515Z,32.30
2018-07-03T13:22:15.023Z,32.58
2018-07-03T13:24:43.756Z,31.02
2018-07-03T13:27:12.456Z,30.52
2018-07-03T13:29:40.935Z,30.36
2018-07-03T13:32:09.509Z,30.30
2018-07-03T13:34:37.991Z,30.81
2018-07-03T13:37:06.567Z,30.98
2018-07-03T13:39:35.146Z,30.40
2018-07-03T13:42:03.990Z,30.64
2018-07-03T13:44:32.516Z,30.10
2018-07-03T13:47:01.149Z,29.96
2018-07-03T13:49:29.905Z,30.15
2018-07-03T13:51:58.502Z,29.63
2018-07-03T13:54:27.219Z,29.90
2018-07-03T13:56:55.962Z,29.19
2018-07-03T13:59:24.767Z,29.99
2018-07-03T14:01:53.383Z,28.82
2018-07-03T14:04:21.976Z,29.00
2018-07-03T14:06:50.557Z,28.99
2018-07-03T14:09:19.058Z,28.17
2018-07-03T14:11:47.622Z,28.91
2018-07-03T14:14:16.143Z,28.31
2018-07-03T14:16:44.594Z,29.26
2018-07-03T14:19:15.718Z,30.08
2018-07-03T14:21:44.191Z,29.02
2018-07-03T14:24:13.044Z,29.64
2018-07-03T14:26:41.651Z,29.79
2018-07-03T14:29:10.374Z,29.23
2018-07-03T14:31:38.916Z,27.82
2018-07-03T14:34:07.609Z,27.30
2018-07-03T14:36:36.396Z,28.36
2018-07-03T14:39:09.304Z,27.27
2018-07-03T14:41:37.768Z,28.54
2018-07-03T14:44:06.794Z,28.15
2018-07-03T14:46:35.423Z,28.02
2018-07-03T14:49:04.524Z,28.66
2018-07-03T14:51:33.108Z,28.72
2018-07-03T14:54:01.719Z,28.04
2018-07-03T14:56:30.709Z,27.97
2018-07-03T14:58:59.701Z,28.10
2018-07-03T15:01:28.502Z,28.33
2018-07-03T15:03:57.074Z,27.65
2018-07-03T15:06:26.025Z,29.11
2018-07-03T15:08:54.783Z,28.50
2018-07-03T15:11:23.400Z,28.55
2018-07-03T15:13:52.181Z,27.74
2018-07-03T15:16:21.061Z,27.87
2018-07-03T15:18:54.898Z,28.11
2018-07-03T15:21:23.640Z,28.85
2018-07-03T15:23:52.242Z,28.61
2018-07-03T15:26:21.179Z,27.88
2018-07-03T15:28:50.537Z,28.12
2018-07-03T15:31:19.135Z,27.83
2018-07-03T15:33:47.841Z,28.26
2018-07-03T15:36:16.695Z,28.75
2018-07-03T15:38:45.577Z,28.36
2018-07-03T15:41:14.235Z,28.64
2018-07-03T15:43:52.880Z,28.16
2018-07-03T15:46:21.689Z,28.77
2018-07-03T15:48:50.366Z,28.23
2018-07-03T15:51:18.956Z,28.36
2018-07-03T15:53:47.637Z,28.35
2018-07-03T15:56:16.947Z,28.38
2018-07-03T15:58:45.623Z,28.38
2018-07-03T16:01:14.200Z,27.97
2018-07-03T16:03:53.054Z,28.65
2018-07-03T16:06:33.199Z,29.26
2018-07-03T16:09:08.413Z,28.91
2018-07-03T16:11:37.827Z,28.03
2018-07-03T16:14:06.484Z,28.15
2018-07-03T16:16:35.036Z,28.05
2018-07-03T16:19:08.895Z,28.64
2018-07-03T16:21:37.497Z,28.27
2018-07-03T16:24:06.795Z,28.20
2018-07-03T16:26:35.439Z,28.97
2018-07-03T16:29:05.225Z,29.19
2018-07-03T16:31:33.704Z,28.64
2018-07-03T16:34:02.689Z,28.90
2018-07-03T16:36:31.278Z,28.80
2018-07-03T16:38:59.956Z,27.52
2018-07-03T16:41:28.551Z,28.03
2018-07-03T16:43:57.038Z,29.07
2018-07-03T16:46:25.703Z,29.31
2018-07-03T16:48:54.699Z,30.18
2018-07-03T16:51:23.219Z,29.79
2018-07-03T16:53:51.716Z,30.57
2018-07-03T16:56:20.342Z,30.80
2018-07-03T16:58:49.342Z,29.81
2018-07-03T17:01:18.059Z,30.42
2018-07-03T17:03:46.838Z,30.19
2018-07-03T17:06:15.668Z,30.76
2018-07-03T17:08:44.098Z,30.47
2018-07-03T17:11:12.860Z,30.30
2018-07-03T17:13:41.432Z,31.02
2018-07-03T17:16:10.094Z,31.12
2018-07-03T17:18:42.914Z,31.26
2018-07-03T17:21:11.427Z,31.70
2018-07-03T17:23:40.007Z,31.78
2018-07-03T17:26:08.969Z,31.65
2018-07-03T17:28:37.726Z,32.12
2018-07-03T17:31:06.528Z,31.97
2018-07-03T17:33:35.478Z,31.83
2018-07-03T17:36:04.535Z,32.60
2018-07-03T17:38:33.063Z,32.77
2018-07-03T17:41:12.900Z,32.90
2018-07-03T17:44:04.791Z,32.48
2018-07-03T17:46:33.427Z,32.88
2018-07-03T17:49:01.944Z,32.32
2018-07-03T17:51:30.643Z,32.82
2018-07-03T17:53:59.619Z,33.16
2018-07-03T17:56:28.784Z,33.49
2018-07-03T17:58:57.534Z,32.72
2018-07-03T18:01:26.235Z,34.76
2018-07-03T18:03:55.047Z,34.18
2018-07-03T18:06:23.881Z,34.67
2018-07-03T18:08:52.621Z,33.75
2018-07-03T18:11:21.877Z,33.52
2018-07-03T18:13:50.546Z,34.12
2018-07-03T18:16:19.753Z,33.41
2018-07-03T18:19:50.899Z,35.11
2018-07-03T18:22:19.670Z,34.88
2018-07-03T18:24:48.334Z,34.20
2018-07-03T18:27:17.296Z,33.85
2018-07-03T18:29:46.004Z,33.70
2018-07-03T18:32:14.537Z,33.75
2018-07-03T18:34:43.045Z,33.91
2018-07-03T18:37:11.518Z,34.77
2018-07-03T18:39:40.290Z,34.39
2018-07-03T18:42:09.099Z,35.27
2018-07-03T18:44:38.110Z,35.68
2018-07-03T18:47:06.711Z,35.37
2018-07-03T18:49:35.316Z,36.08
2018-07-03T18:52:04.220Z,35.50
2018-07-03T18:54:32.737Z,35.76
2018-07-03T18:57:01.337Z,36.54
2018-07-03T18:59:29.814Z,36.07
2018-07-03T19:01:58.563Z,36.02
2018-07-03T19:04:27.285Z,36.30
2018-07-03T19:06:56.234Z,36.80
2018-07-03T19:09:24.719Z,36.46
2018-07-03T19:11:53.493Z,37.31
2018-07-03T19:14:22.455Z,37.16
2018-07-03T19:16:51.063Z,37.24
2018-07-03T19:19:19.562Z,37.63
2018-07-03T19:21:48.177Z,38.35
2018-07-03T19:24:16.989Z,38.40
2018-07-03T19:26:45.610Z,38.18
2018-07-03T19:29:14.177Z,37.92
2018-07-03T19:31:43.001Z,38.97
2018-07-03T19:34:11.642Z,39.90
2018-07-03T19:36:40.152Z,39.51
2018-07-03T19:39:11.103Z,40.01
2018-07-03T19:41:40.761Z,40.00
2018-07-03T19:44:09.539Z,40.21
2018-07-03T19:46:38.220Z,41.23
2018-07-03T19:49:07.130Z,40.61
2018-07-03T19:51:36.110Z,41.05
2018-07-03T19:54:04.782Z,41.48
2018-07-03T19:56:36.254Z,41.84
2018-07-03T19:59:04.896Z,42.73
2018-07-03T20:01:33.703Z,42.69
2018-07-03T20:04:02.607Z,43.37
2018-07-03T20:06:31.251Z,43.79
2018-07-03T20:08:59.774Z,44.09
2018-07-03T20:11:28.357Z,44.21
2018-07-03T20:13:57.818Z,44.38
2018-07-03T20:16:26.790Z,44.36
2018-07-03T20:18:55.982Z,43.89
2018-07-03T20:21:24.651Z,44.02
2018-07-03T20:23:53.242Z,43.68
2018-07-03T20:26:21.995Z,44.11
2018-07-03T20:28:50.839Z,43.93
2018-07-03T20:31:19.448Z,44.28
2018-07-03T20:33:50.863Z,43.98
2018-07-03T20:36:20.526Z,43.91
2018-07-03T20:38:52.544Z,44.22
2018-07-03T20:41:23.149Z,44.87
2018-07-03T20:43:53.619Z,45.61
2018-07-03T20:46:23.418Z,47.81
2018-07-03T20:48:53.332Z,47.62
2018-07-03T20:51:22.636Z,46.50
2018-07-03T20:53:51.484Z,46.02
2018-07-03T20:56:22.663Z,46.26
2018-07-03T20:58:53.329Z,46.91
2018-07-03T21:01:22.362Z,47.09
2018-07-03T21:03:54.055Z,47.86
2018-07-03T21:06:23.646Z,49.42
2018-07-03T21:08:54.719Z,49.11
2018-07-03T21:11:23.470Z,49.25
2018-07-03T21:13:53.259Z,50.32
2018-07-03T21:16:22.270Z,49.93
2018-07-03T21:18:51.561Z,50.10
2018-07-03T21:21:20.547Z,50.54
2018-07-03T21:23:49.133Z,50.83
2018-07-03T21:26:17.614Z,52.98
2018-07-03T21:28:46.543Z,51.44
2018-07-03T21:31:15.104Z,52.14
2018-07-03T21:33:44.238Z,52.31
2018-07-03T21:36:12.970Z,52.81
2018-07-03T21:38:41.745Z,52.89
2018-07-03T21:41:10.406Z,53.42
2018-07-03T21:43:39.009Z,54.15
2018-07-03T21:46:07.481Z,53.91
2018-07-03T21:48:36.385Z,54.37
2018-07-03T21:51:05.382Z,55.09
2018-07-03T21:53:33.963Z,55.01
2018-07-03T21:56:02.497Z,54.84
2018-07-03T21:58:31.081Z,55.20
2018-07-03T22:00:59.757Z,55.21
2018-07-03T22:03:28.445Z,55.58
2018-07-03T22:05:57.044Z,55.75
2018-07-03T22:08:25.634Z,56.75
2018-07-03T22:10:54.210Z,56.74
2018-07-03T22:13:22.758Z,58.73
2018-07-03T22:15:51.324Z,57.86
2018-07-03T22:18:19.922Z,57.64
2018-07-03T22:20:48.550Z,58.61
2018-07-03T22:23:17.171Z,58.90
2018-07-03T22:25:45.702Z,58.23
2018-07-03T22:28:14.201Z,58.71
2018-07-03T22:30:42.694Z,58.27
2018-07-03T22:33:11.107Z,58.50
2018-07-03T22:35:39.589Z,58.61
2018-07-03T22:38:08.049Z,58.56
2018-07-03T22:40:36.425Z,59.07
2018-07-03T22:43:04.889Z,59.06
2018-07-03T22:45:33.248Z,60.24
2018-07-03T22:48:01.616Z,60.29
2018-07-03T22:50:30.267Z,60.09
2018-07-03T22:52:58.674Z,61.53
2018-07-03T22:55:27.017Z,59.73
2018-07-03T22:57:55.516Z,59.86
2018-07-03T23:00:24.022Z,60.49
2018-07-03T23:02:52.437Z,60.69
2018-07-03T23:05:20.919Z,60.82
2018-07-03T23:07:49.410Z,61.19
2018-07-03T23:10:17.830Z,61.51
2018-07-03T23:12:46.284Z,62.21
2018-07-03T23:15:14.658Z,63.25
2018-07-03T23:17:43.048Z,62.29
2018-07-03T23:20:11.642Z,62.56
2018-07-03T23:22:40.168Z,63.26
2018-07-03T23:25:08.575Z,62.96
2018-07-03T23:27:37.014Z,64.05
2018-07-03T23:30:05.383Z,64.65
2018-07-03T23:32:33.845Z,63.87
2018-07-03T23:35:02.288Z,64.50
2018-07-03T23:37:30.690Z,64.72
2018-07-03T23:39:59.051Z,65.21
2018-07-03T23:42:27.419Z,65.48
2018-07-03T23:44:55.809Z,65.49
2018-07-03T23:47:35.457Z,65.79
2018-07-03T23:50:15.064Z,66.28
2018-07-03T23:52:54.818Z,67.19
2018-07-03T23:55:34.589Z,66.96
2018-07-03T23:58:14.241Z,67.41
